sensor_id;sensor_type;location;lat;lon;timestamp;temperature;humidity
17146;DHT22;8688;54.444;18.444;2023-09-18T00:02:01;17.00;99.90
17146;DHT22;8688;54.444;18.444;2023-09-18T00:04:28;17.00;99.90
17146;DHT22;8688;54.444;18.444;2023-09-18T00:06:57;17.00;99.90
17146;DHT22;8688;54.444;18.444;2023-09-18T00:09:25;17.00;99.90
17146;DHT22;8688;54.444;18.444;2023-09-18T00:11:52;16.90;99.90
17146;DHT22;8688;54.444;18.444;2023-09-18T00:14:20;16.90;99.90
17146;DHT22;8688;54.444;18.444;2023-09-18T00:16:48;17.00;99.90
17146;DHT22;8688;54.444;18.444;2023-09-18T00:19:15;16.90;99.90
17146;DHT22;8688;54.444;18.444;2023-09-18T00:21:43;16.90;99.90
17146;DHT22;8688;54.444;18.444;2023-09-18T00:24:12;17.00;99.90
17146;DHT22;8688;54.444;18.444;2023-09-18T00:26:39;16.90;99.90
17146;DHT22;8688;54.444;18.444;2023-09-18T00:29:07;17.00;99.90
17146;DHT22;8688;54.444;18.444;2023-09-18T00:31:34;17.00;99.90
17146;DHT22;8688;54.444;18.444;2023-09-18T00:34:02;17.00;99.90
17146;DHT22;8688;54.444;18.444;2023-09-18T00:36:29;16.90;99.90
17146;DHT22;8688;54.444;18.444;2023-09-18T00:38:57;16.90;99.90
17146;DHT22;8688;54.444;18.444;2023-09-18T00:41:26;16.90;99.90
17146;DHT22;8688;54.444;18.444;2023-09-18T00:43:53;16.80;99.90
17146;DHT22;8688;54.444;18.444;2023-09-18T00:46:21;16.80;99.90
17146;DHT22;8688;54.444;18.444;2023-09-18T00:48:49;16.80;99.90
17146;DHT22;8688;54.444;18.444;2023-09-18T00:51:17;16.80;99.90
17146;DHT22;8688;54.444;18.444;2023-09-18T00:53:46;16.70;99.90
17146;DHT22;8688;54.444;18.444;2023-09-18T00:56:15;16.70;99.90
17146;DHT22;8688;54.444;18.444;2023-09-18T00:58:47;16.70;99.90
17146;DHT22;8688;54.444;18.444;2023-09-18T01:01:16;16.70;99.90
17146;DHT22;8688;54.444;18.444;2023-09-18T01:03:49;16.60;99.90
17146;DHT22;8688;54.444;18.444;2023-09-18T01:06:17;16.60;99.90
17146;DHT22;8688;54.444;18.444;2023-09-18T01:08:47;16.60;99.90
17146;DHT22;8688;54.444;18.444;2023-09-18T01:11:26;16.60;99.90
17146;DHT22;8688;54.444;18.444;2023-09-18T01:14:04;16.50;99.90
17146;DHT22;8688;54.444;18.444;2023-09-18T01:16:39;16.60;99.90
17146;DHT22;8688;54.444;18.444;2023-09-18T01:19:10;16.50;99.90
17146;DHT22;8688;54.444;18.444;2023-09-18T01:21:37;16.50;99.90
17146;DHT22;8688;54.444;18.444;2023-09-18T01:24:06;16.50;99.90
17146;DHT22;8688;54.444;18.444;2023-09-18T01:26:34;16.50;99.90
17146;DHT22;8688;54.444;18.444;2023-09-18T01:29:02;16.50;99.90
17146;DHT22;8688;54.444;18.444;2023-09-18T01:31:30;16.50;99.90
17146;DHT22;8688;54.444;18.444;2023-09-18T01:33:58;16.50;99.90
17146;DHT22;8688;54.444;18.444;2023-09-18T01:36:26;16.50;99.90
17146;DHT22;8688;54.444;18.444;2023-09-18T01:38:54;16.40;99.90
17146;DHT22;8688;54.444;18.444;2023-09-18T01:41:23;16.50;99.90
17146;DHT22;8688;54.444;18.444;2023-09-18T01:43:51;16.50;99.90
17146;DHT22;8688;54.444;18.444;2023-09-18T01:46:19;16.40;99.90
17146;DHT22;8688;54.444;18.444;2023-09-18T01:48:47;16.50;99.90
17146;DHT22;8688;54.444;18.444;2023-09-18T01:51:15;16.50;99.90
17146;DHT22;8688;54.444;18.444;2023-09-18T01:53:43;16.40;99.90
17146;DHT22;8688;54.444;18.444;2023-09-18T01:56:10;16.50;99.90
17146;DHT22;8688;54.444;18.444;2023-09-18T01:58:39;16.40;99.90
17146;DHT22;8688;54.444;18.444;2023-09-18T02:01:07;16.40;99.90
17146;DHT22;8688;54.444;18.444;2023-09-18T02:03:35;16.40;99.90
17146;DHT22;8688;54.444;18.444;2023-09-18T02:06:03;16.50;99.90
17146;DHT22;8688;54.444;18.444;2023-09-18T02:08:31;16.40;99.90
17146;DHT22;8688;54.444;18.444;2023-09-18T02:10:59;16.40;99.90
17146;DHT22;8688;54.444;18.444;2023-09-18T02:13:26;16.40;99.90
17146;DHT22;8688;54.444;18.444;2023-09-18T02:15:56;16.40;99.90
17146;DHT22;8688;54.444;18.444;2023-09-18T02:18:23;16.30;99.90
17146;DHT22;8688;54.444;18.444;2023-09-18T02:20:51;16.30;99.90
17146;DHT22;8688;54.444;18.444;2023-09-18T02:23:19;16.40;99.90
17146;DHT22;8688;54.444;18.444;2023-09-18T02:25:46;16.40;99.90
17146;DHT22;8688;54.444;18.444;2023-09-18T02:28:14;16.30;99.90
17146;DHT22;8688;54.444;18.444;2023-09-18T02:30:42;16.30;99.90
17146;DHT22;8688;54.444;18.444;2023-09-18T02:33:11;16.30;99.90
17146;DHT22;8688;54.444;18.444;2023-09-18T02:35:40;16.30;99.90
17146;DHT22;8688;54.444;18.444;2023-09-18T02:38:09;16.30;99.90
17146;DHT22;8688;54.444;18.444;2023-09-18T02:40:37;16.30;99.90
17146;DHT22;8688;54.444;18.444;2023-09-18T02:43:05;16.30;99.90
17146;DHT22;8688;54.444;18.444;2023-09-18T02:45:32;16.30;99.90
17146;DHT22;8688;54.444;18.444;2023-09-18T02:48:00;16.20;99.90
17146;DHT22;8688;54.444;18.444;2023-09-18T02:50:29;16.20;99.90
17146;DHT22;8688;54.444;18.444;2023-09-18T02:52:56;16.30;99.90
17146;DHT22;8688;54.444;18.444;2023-09-18T02:55:24;16.20;99.90
17146;DHT22;8688;54.444;18.444;2023-09-18T02:57:52;16.30;99.90
17146;DHT22;8688;54.444;18.444;2023-09-18T03:00:19;16.30;99.90
17146;DHT22;8688;54.444;18.444;2023-09-18T03:02:47;16.30;99.90
17146;DHT22;8688;54.444;18.444;2023-09-18T03:05:15;16.30;99.90
17146;DHT22;8688;54.444;18.444;2023-09-18T03:07:44;16.40;99.90
17146;DHT22;8688;54.444;18.444;2023-09-18T03:10:11;16.40;99.90
17146;DHT22;8688;54.444;18.444;2023-09-18T03:12:39;16.40;99.90
17146;DHT22;8688;54.444;18.444;2023-09-18T03:15:07;16.30;99.90
17146;DHT22;8688;54.444;18.444;2023-09-18T03:17:35;16.30;99.90
17146;DHT22;8688;54.444;18.444;2023-09-18T03:20:03;16.30;99.90
17146;DHT22;8688;54.444;18.444;2023-09-18T03:22:31;16.30;99.90
17146;DHT22;8688;54.444;18.444;2023-09-18T03:25:00;16.40;99.90
17146;DHT22;8688;54.444;18.444;2023-09-18T03:27:28;16.30;99.90
17146;DHT22;8688;54.444;18.444;2023-09-18T03:29:57;16.40;99.90
17146;DHT22;8688;54.444;18.444;2023-09-18T03:32:25;16.40;99.90
17146;DHT22;8688;54.444;18.444;2023-09-18T03:34:53;16.40;99.90
17146;DHT22;8688;54.444;18.444;2023-09-18T03:37:20;16.40;99.90
17146;DHT22;8688;54.444;18.444;2023-09-18T03:39:48;16.40;99.90
17146;DHT22;8688;54.444;18.444;2023-09-18T03:42:17;16.40;99.90
17146;DHT22;8688;54.444;18.444;2023-09-18T03:44:44;16.40;99.90
17146;DHT22;8688;54.444;18.444;2023-09-18T03:47:12;16.40;99.90
17146;DHT22;8688;54.444;18.444;2023-09-18T03:49:40;16.40;99.90
17146;DHT22;8688;54.444;18.444;2023-09-18T03:52:07;16.40;99.90
17146;DHT22;8688;54.444;18.444;2023-09-18T03:54:34;16.40;99.90
17146;DHT22;8688;54.444;18.444;2023-09-18T03:57:02;16.40;99.90
17146;DHT22;8688;54.444;18.444;2023-09-18T03:59:31;16.40;99.90
17146;DHT22;8688;54.444;18.444;2023-09-18T04:01:59;16.40;99.90
17146;DHT22;8688;54.444;18.444;2023-09-18T04:04:26;16.30;99.90
17146;DHT22;8688;54.444;18.444;2023-09-18T04:06:55;16.40;99.90
17146;DHT22;8688;54.444;18.444;2023-09-18T04:09:22;16.40;99.90
17146;DHT22;8688;54.444;18.444;2023-09-18T04:11:50;16.40;99.90
17146;DHT22;8688;54.444;18.444;2023-09-18T04:14:18;16.40;99.90
17146;DHT22;8688;54.444;18.444;2023-09-18T04:16:47;16.40;99.90
17146;DHT22;8688;54.444;18.444;2023-09-18T04:19:14;16.40;99.90
17146;DHT22;8688;54.444;18.444;2023-09-18T04:21:42;16.40;99.90
17146;DHT22;8688;54.444;18.444;2023-09-18T04:24:09;16.40;99.90
17146;DHT22;8688;54.444;18.444;2023-09-18T04:26:37;16.40;99.90
17146;DHT22;8688;54.444;18.444;2023-09-18T04:29:05;16.40;99.90
17146;DHT22;8688;54.444;18.444;2023-09-18T04:31:33;16.30;99.90
17146;DHT22;8688;54.444;18.444;2023-09-18T04:34:02;16.30;99.90
17146;DHT22;8688;54.444;18.444;2023-09-18T04:36:30;16.30;99.90
17146;DHT22;8688;54.444;18.444;2023-09-18T04:38:57;16.20;99.90
17146;DHT22;8688;54.444;18.444;2023-09-18T04:41:25;16.20;99.90
17146;DHT22;8688;54.444;18.444;2023-09-18T04:43:52;16.20;99.90
17146;DHT22;8688;54.444;18.444;2023-09-18T04:46:20;16.20;99.90
17146;DHT22;8688;54.444;18.444;2023-09-18T04:48:47;16.20;99.90
17146;DHT22;8688;54.444;18.444;2023-09-18T04:51:16;16.30;99.90
17146;DHT22;8688;54.444;18.444;2023-09-18T04:53:44;16.30;99.90
17146;DHT22;8688;54.444;18.444;2023-09-18T04:56:12;16.30;99.90
17146;DHT22;8688;54.444;18.444;2023-09-18T04:58:39;16.30;99.90
17146;DHT22;8688;54.444;18.444;2023-09-18T05:01:07;16.30;99.90
17146;DHT22;8688;54.444;18.444;2023-09-18T05:03:37;16.30;99.90
17146;DHT22;8688;54.444;18.444;2023-09-18T05:06:04;16.30;99.90
17146;DHT22;8688;54.444;18.444;2023-09-18T05:08:33;16.30;99.90
17146;DHT22;8688;54.444;18.444;2023-09-18T05:11:01;16.30;99.90
17146;DHT22;8688;54.444;18.444;2023-09-18T05:13:28;16.30;99.90
17146;DHT22;8688;54.444;18.444;2023-09-18T05:15:56;16.30;99.90
17146;DHT22;8688;54.444;18.444;2023-09-18T05:18:24;16.30;99.90
17146;DHT22;8688;54.444;18.444;2023-09-18T05:20:52;16.30;99.90
17146;DHT22;8688;54.444;18.444;2023-09-18T05:23:20;16.30;99.90
17146;DHT22;8688;54.444;18.444;2023-09-18T05:25:49;16.30;99.90
17146;DHT22;8688;54.444;18.444;2023-09-18T05:28:16;16.50;99.90
17146;DHT22;8688;54.444;18.444;2023-09-18T05:30:44;16.50;99.90
17146;DHT22;8688;54.444;18.444;2023-09-18T05:33:12;16.50;99.90
17146;DHT22;8688;54.444;18.444;2023-09-18T05:35:41;16.50;99.90
17146;DHT22;8688;54.444;18.444;2023-09-18T05:38:09;16.60;99.90
17146;DHT22;8688;54.444;18.444;2023-09-18T05:40:37;16.60;99.90
17146;DHT22;8688;54.444;18.444;2023-09-18T05:43:05;16.70;99.90
17146;DHT22;8688;54.444;18.444;2023-09-18T05:45:33;16.80;99.90
17146;DHT22;8688;54.444;18.444;2023-09-18T05:48:00;16.80;99.90
17146;DHT22;8688;54.444;18.444;2023-09-18T05:50:30;16.90;99.90
17146;DHT22;8688;54.444;18.444;2023-09-18T05:52:58;16.90;99.90
17146;DHT22;8688;54.444;18.444;2023-09-18T05:55:27;16.90;99.90
17146;DHT22;8688;54.444;18.444;2023-09-18T05:57:54;16.90;99.90
17146;DHT22;8688;54.444;18.444;2023-09-18T06:00:24;17.00;99.90
17146;DHT22;8688;54.444;18.444;2023-09-18T06:02:53;17.00;99.90
17146;DHT22;8688;54.444;18.444;2023-09-18T06:05:20;17.00;99.90
17146;DHT22;8688;54.444;18.444;2023-09-18T06:07:48;17.10;99.90
17146;DHT22;8688;54.444;18.444;2023-09-18T06:10:16;17.10;99.90
17146;DHT22;8688;54.444;18.444;2023-09-18T06:12:44;17.10;99.90
17146;DHT22;8688;54.444;18.444;2023-09-18T06:15:13;17.20;99.90
17146;DHT22;8688;54.444;18.444;2023-09-18T06:17:44;17.20;99.90
17146;DHT22;8688;54.444;18.444;2023-09-18T06:20:13;17.20;99.90
17146;DHT22;8688;54.444;18.444;2023-09-18T06:22:42;17.30;99.90
17146;DHT22;8688;54.444;18.444;2023-09-18T06:25:09;17.30;99.90
17146;DHT22;8688;54.444;18.444;2023-09-18T06:27:37;17.30;99.90
17146;DHT22;8688;54.444;18.444;2023-09-18T06:30:07;17.40;99.90
17146;DHT22;8688;54.444;18.444;2023-09-18T06:32:35;17.40;99.90
17146;DHT22;8688;54.444;18.444;2023-09-18T06:35:05;17.50;99.90
17146;DHT22;8688;54.444;18.444;2023-09-18T06:37:33;17.50;99.90
17146;DHT22;8688;54.444;18.444;2023-09-18T06:40:01;17.60;99.90
17146;DHT22;8688;54.444;18.444;2023-09-18T06:42:31;17.70;99.90
17146;DHT22;8688;54.444;18.444;2023-09-18T06:44:59;17.70;99.90
17146;DHT22;8688;54.444;18.444;2023-09-18T06:47:27;17.70;99.90
17146;DHT22;8688;54.444;18.444;2023-09-18T06:49:54;17.80;99.90
17146;DHT22;8688;54.444;18.444;2023-09-18T06:52:23;17.90;99.90
17146;DHT22;8688;54.444;18.444;2023-09-18T06:54:52;17.90;99.90
17146;DHT22;8688;54.444;18.444;2023-09-18T06:57:20;18.00;99.90
17146;DHT22;8688;54.444;18.444;2023-09-18T06:59:48;18.10;99.90
17146;DHT22;8688;54.444;18.444;2023-09-18T07:02:15;18.20;99.90
17146;DHT22;8688;54.444;18.444;2023-09-18T07:04:43;18.20;99.90
17146;DHT22;8688;54.444;18.444;2023-09-18T07:07:12;18.20;99.90
17146;DHT22;8688;54.444;18.444;2023-09-18T07:09:41;18.20;99.90
17146;DHT22;8688;54.444;18.444;2023-09-18T07:12:09;18.30;99.90
17146;DHT22;8688;54.444;18.444;2023-09-18T07:14:37;18.30;99.90
17146;DHT22;8688;54.444;18.444;2023-09-18T07:17:05;18.40;99.90
17146;DHT22;8688;54.444;18.444;2023-09-18T07:19:32;18.40;99.90
17146;DHT22;8688;54.444;18.444;2023-09-18T07:22:00;18.50;99.90
17146;DHT22;8688;54.444;18.444;2023-09-18T07:24:28;18.50;99.90
17146;DHT22;8688;54.444;18.444;2023-09-18T07:26:57;18.50;99.90
17146;DHT22;8688;54.444;18.444;2023-09-18T07:29:25;18.60;99.90
17146;DHT22;8688;54.444;18.444;2023-09-18T07:31:53;18.70;99.90
17146;DHT22;8688;54.444;18.444;2023-09-18T07:34:20;18.70;99.90
17146;DHT22;8688;54.444;18.444;2023-09-18T07:36:48;18.70;99.90
17146;DHT22;8688;54.444;18.444;2023-09-18T07:39:20;18.80;99.90
17146;DHT22;8688;54.444;18.444;2023-09-18T07:41:47;18.90;99.90
17146;DHT22;8688;54.444;18.444;2023-09-18T07:44:21;18.90;99.90
17146;DHT22;8688;54.444;18.444;2023-09-18T07:46:49;18.90;99.90
17146;DHT22;8688;54.444;18.444;2023-09-18T07:49:16;19.00;99.90
17146;DHT22;8688;54.444;18.444;2023-09-18T07:51:44;19.10;99.90
17146;DHT22;8688;54.444;18.444;2023-09-18T07:54:14;19.10;99.90
17146;DHT22;8688;54.444;18.444;2023-09-18T07:56:43;19.20;99.90
17146;DHT22;8688;54.444;18.444;2023-09-18T07:59:10;19.30;99.90
17146;DHT22;8688;54.444;18.444;2023-09-18T08:01:42;19.40;99.90
17146;DHT22;8688;54.444;18.444;2023-09-18T08:04:09;19.50;99.90
17146;DHT22;8688;54.444;18.444;2023-09-18T08:06:37;19.60;99.90
17146;DHT22;8688;54.444;18.444;2023-09-18T08:09:07;19.60;99.90
17146;DHT22;8688;54.444;18.444;2023-09-18T08:11:35;19.70;99.90
17146;DHT22;8688;54.444;18.444;2023-09-18T08:14:07;19.70;99.90
17146;DHT22;8688;54.444;18.444;2023-09-18T08:16:35;19.70;99.90
17146;DHT22;8688;54.444;18.444;2023-09-18T08:19:04;19.80;84.20
17146;DHT22;8688;54.444;18.444;2023-09-18T08:21:32;19.90;93.10
17146;DHT22;8688;54.444;18.444;2023-09-18T08:24:00;20.00;1.00
17146;DHT22;8688;54.444;18.444;2023-09-18T08:26:28;20.10;1.00
17146;DHT22;8688;54.444;18.444;2023-09-18T08:28:55;20.20;1.00
17146;DHT22;8688;54.444;18.444;2023-09-18T08:31:23;20.30;1.00
17146;DHT22;8688;54.444;18.444;2023-09-18T08:33:50;20.40;1.00
17146;DHT22;8688;54.444;18.444;2023-09-18T08:36:19;20.50;1.00
17146;DHT22;8688;54.444;18.444;2023-09-18T08:38:48;20.50;1.00
17146;DHT22;8688;54.444;18.444;2023-09-18T08:41:17;20.60;1.00
17146;DHT22;8688;54.444;18.444;2023-09-18T08:43:48;20.70;1.00
17146;DHT22;8688;54.444;18.444;2023-09-18T08:46:16;20.80;1.00
17146;DHT22;8688;54.444;18.444;2023-09-18T08:48:45;20.80;1.00
17146;DHT22;8688;54.444;18.444;2023-09-18T08:51:12;20.90;1.00
17146;DHT22;8688;54.444;18.444;2023-09-18T08:53:42;20.90;1.00
17146;DHT22;8688;54.444;18.444;2023-09-18T08:56:11;21.00;1.00
17146;DHT22;8688;54.444;18.444;2023-09-18T08:58:40;21.10;1.00
17146;DHT22;8688;54.444;18.444;2023-09-18T09:01:09;21.10;1.00
17146;DHT22;8688;54.444;18.444;2023-09-18T09:03:37;21.10;1.00
17146;DHT22;8688;54.444;18.444;2023-09-18T09:06:05;21.20;1.00
17146;DHT22;8688;54.444;18.444;2023-09-18T09:08:33;21.30;1.00
17146;DHT22;8688;54.444;18.444;2023-09-18T09:11:03;21.40;1.00
17146;DHT22;8688;54.444;18.444;2023-09-18T09:13:31;21.40;1.00
17146;DHT22;8688;54.444;18.444;2023-09-18T09:15:59;21.50;1.00
17146;DHT22;8688;54.444;18.444;2023-09-18T09:18:28;21.60;1.00
17146;DHT22;8688;54.444;18.444;2023-09-18T09:20:58;21.60;1.00
17146;DHT22;8688;54.444;18.444;2023-09-18T09:23:27;21.70;99.90
17146;DHT22;8688;54.444;18.444;2023-09-18T09:26:13;21.70;99.90
17146;DHT22;8688;54.444;18.444;2023-09-18T09:28:41;21.70;99.90
17146;DHT22;8688;54.444;18.444;2023-09-18T09:31:09;21.80;1.00
17146;DHT22;8688;54.444;18.444;2023-09-18T09:33:37;21.80;99.90
17146;DHT22;8688;54.444;18.444;2023-09-18T09:36:07;21.80;99.90
17146;DHT22;8688;54.444;18.444;2023-09-18T09:38:35;21.90;1.00
17146;DHT22;8688;54.444;18.444;2023-09-18T09:41:03;22.00;99.90
17146;DHT22;8688;54.444;18.444;2023-09-18T09:43:34;22.00;1.00
17146;DHT22;8688;54.444;18.444;2023-09-18T09:46:02;22.10;99.90
17146;DHT22;8688;54.444;18.444;2023-09-18T09:48:30;22.10;99.90
17146;DHT22;8688;54.444;18.444;2023-09-18T09:51:00;22.10;1.00
17146;DHT22;8688;54.444;18.444;2023-09-18T09:53:43;22.10;1.00
17146;DHT22;8688;54.444;18.444;2023-09-18T09:56:13;22.20;99.90
17146;DHT22;8688;54.444;18.444;2023-09-18T09:58:42;22.30;99.90
17146;DHT22;8688;54.444;18.444;2023-09-18T10:01:12;22.30;1.00
17146;DHT22;8688;54.444;18.444;2023-09-18T10:03:44;22.30;99.90
17146;DHT22;8688;54.444;18.444;2023-09-18T10:06:13;22.40;99.90
17146;DHT22;8688;54.444;18.444;2023-09-18T10:08:41;22.50;99.90
17146;DHT22;8688;54.444;18.444;2023-09-18T10:11:09;22.50;1.00
17146;DHT22;8688;54.444;18.444;2023-09-18T10:13:47;22.50;13.60
17146;DHT22;8688;54.444;18.444;2023-09-18T10:16:17;22.60;63.40
17146;DHT22;8688;54.444;18.444;2023-09-18T10:18:55;22.70;99.90
17146;DHT22;8688;54.444;18.444;2023-09-18T10:21:29;22.80;99.90
17146;DHT22;8688;54.444;18.444;2023-09-18T10:24:05;22.80;1.00
17146;DHT22;8688;54.444;18.444;2023-09-18T10:26:39;22.90;35.60
17146;DHT22;8688;54.444;18.444;2023-09-18T10:29:11;23.00;1.00
17146;DHT22;8688;54.444;18.444;2023-09-18T10:31:39;23.10;1.00
17146;DHT22;8688;54.444;18.444;2023-09-18T10:34:08;23.10;1.00
17146;DHT22;8688;54.444;18.444;2023-09-18T10:36:36;23.10;1.00
17146;DHT22;8688;54.444;18.444;2023-09-18T10:39:05;23.20;25.90
17146;DHT22;8688;54.444;18.444;2023-09-18T10:41:34;23.30;99.90
17146;DHT22;8688;54.444;18.444;2023-09-18T10:44:03;23.40;99.90
17146;DHT22;8688;54.444;18.444;2023-09-18T10:46:33;23.40;1.00
17146;DHT22;8688;54.444;18.444;2023-09-18T10:49:01;23.40;1.00
17146;DHT22;8688;54.444;18.444;2023-09-18T10:51:32;23.50;1.00
17146;DHT22;8688;54.444;18.444;2023-09-18T10:54:01;23.60;1.00
17146;DHT22;8688;54.444;18.444;2023-09-18T10:56:29;23.70;1.00
17146;DHT22;8688;54.444;18.444;2023-09-18T10:58:59;23.70;1.00
17146;DHT22;8688;54.444;18.444;2023-09-18T11:01:28;23.80;1.00
17146;DHT22;8688;54.444;18.444;2023-09-18T11:04:01;23.80;99.90
17146;DHT22;8688;54.444;18.444;2023-09-18T11:06:28;23.90;99.90
17146;DHT22;8688;54.444;18.444;2023-09-18T11:09:08;24.00;1.00
17146;DHT22;8688;54.444;18.444;2023-09-18T11:11:36;24.10;99.90
17146;DHT22;8688;54.444;18.444;2023-09-18T11:14:12;24.10;1.00
17146;DHT22;8688;54.444;18.444;2023-09-18T11:16:41;24.10;99.90
17146;DHT22;8688;54.444;18.444;2023-09-18T11:19:12;24.10;99.90
17146;DHT22;8688;54.444;18.444;2023-09-18T11:21:41;24.00;99.90
17146;DHT22;8688;54.444;18.444;2023-09-18T11:24:16;24.10;99.90
17146;DHT22;8688;54.444;18.444;2023-09-18T11:26:45;24.20;99.90
17146;DHT22;8688;54.444;18.444;2023-09-18T11:29:15;24.40;99.90
17146;DHT22;8688;54.444;18.444;2023-09-18T11:31:47;24.70;1.00
17146;DHT22;8688;54.444;18.444;2023-09-18T11:34:20;24.80;1.00
17146;DHT22;8688;54.444;18.444;2023-09-18T11:36:48;24.70;99.90
17146;DHT22;8688;54.444;18.444;2023-09-18T11:39:34;24.60;99.90
17146;DHT22;8688;54.444;18.444;2023-09-18T11:42:09;24.60;99.90
17146;DHT22;8688;54.444;18.444;2023-09-18T11:44:38;24.70;99.90
17146;DHT22;8688;54.444;18.444;2023-09-18T11:47:13;24.80;34.20
17146;DHT22;8688;54.444;18.444;2023-09-18T11:49:50;24.90;99.90
17146;DHT22;8688;54.444;18.444;2023-09-18T11:52:21;25.00;99.90
17146;DHT22;8688;54.444;18.444;2023-09-18T11:54:48;25.10;1.00
17146;DHT22;8688;54.444;18.444;2023-09-18T11:57:17;25.10;1.00
17146;DHT22;8688;54.444;18.444;2023-09-18T11:59:45;25.10;1.00
17146;DHT22;8688;54.444;18.444;2023-09-18T12:02:13;25.20;1.00
17146;DHT22;8688;54.444;18.444;2023-09-18T12:04:46;25.20;1.00
17146;DHT22;8688;54.444;18.444;2023-09-18T12:07:16;25.20;1.00
17146;DHT22;8688;54.444;18.444;2023-09-18T12:09:45;25.30;1.00
17146;DHT22;8688;54.444;18.444;2023-09-18T12:12:12;25.40;1.00
17146;DHT22;8688;54.444;18.444;2023-09-18T12:14:41;25.50;1.00
17146;DHT22;8688;54.444;18.444;2023-09-18T12:17:14;25.60;99.90
17146;DHT22;8688;54.444;18.444;2023-09-18T12:19:51;25.70;1.00
17146;DHT22;8688;54.444;18.444;2023-09-18T12:22:25;25.70;99.90
17146;DHT22;8688;54.444;18.444;2023-09-18T12:24:53;25.70;1.00
17146;DHT22;8688;54.444;18.444;2023-09-18T12:27:20;25.70;1.00
17146;DHT22;8688;54.444;18.444;2023-09-18T12:29:52;25.80;48.10
17146;DHT22;8688;54.444;18.444;2023-09-18T12:32:20;25.80;1.00
17146;DHT22;8688;54.444;18.444;2023-09-18T12:34:48;25.90;99.90
17146;DHT22;8688;54.444;18.444;2023-09-18T12:37:16;26.00;99.90
17146;DHT22;8688;54.444;18.444;2023-09-18T12:39:45;26.10;1.00
17146;DHT22;8688;54.444;18.444;2023-09-18T12:42:37;26.20;99.90
17146;DHT22;8688;54.444;18.444;2023-09-18T12:45:07;26.30;99.90
17146;DHT22;8688;54.444;18.444;2023-09-18T12:47:35;26.30;99.90
17146;DHT22;8688;54.444;18.444;2023-09-18T12:50:06;26.30;1.00
17146;DHT22;8688;54.444;18.444;2023-09-18T12:52:34;26.40;73.90
17146;DHT22;8688;54.444;18.444;2023-09-18T12:55:03;26.30;1.00
17146;DHT22;8688;54.444;18.444;2023-09-18T12:57:33;26.40;14.70
17146;DHT22;8688;54.444;18.444;2023-09-18T13:00:08;26.50;99.90
17146;DHT22;8688;54.444;18.444;2023-09-18T13:02:38;26.40;1.00
17146;DHT22;8688;54.444;18.444;2023-09-18T13:05:07;26.50;1.00
17146;DHT22;8688;54.444;18.444;2023-09-18T13:07:44;26.40;99.90
17146;DHT22;8688;54.444;18.444;2023-09-18T13:10:14;26.30;1.00
17146;DHT22;8688;54.444;18.444;2023-09-18T13:12:45;26.30;1.00
17146;DHT22;8688;54.444;18.444;2023-09-18T13:15:13;26.30;1.00
17146;DHT22;8688;54.444;18.444;2023-09-18T13:17:43;26.30;1.00
17146;DHT22;8688;54.444;18.444;2023-09-18T13:20:22;26.30;16.00
17146;DHT22;8688;54.444;18.444;2023-09-18T13:22:56;26.20;99.90
17146;DHT22;8688;54.444;18.444;2023-09-18T13:25:28;26.10;1.00
17146;DHT22;8688;54.444;18.444;2023-09-18T13:56:12;27.10;99.90
17146;DHT22;8688;54.444;18.444;2023-09-18T13:58:40;27.20;99.90
17146;DHT22;8688;54.444;18.444;2023-09-18T14:01:08;27.30;99.90
17146;DHT22;8688;54.444;18.444;2023-09-18T14:03:36;27.30;1.00
17146;DHT22;8688;54.444;18.444;2023-09-18T14:06:03;27.30;1.00
17146;DHT22;8688;54.444;18.444;2023-09-18T14:08:33;27.40;99.90
17146;DHT22;8688;54.444;18.444;2023-09-18T14:11:01;27.50;99.90
17146;DHT22;8688;54.444;18.444;2023-09-18T14:13:31;27.40;1.00
17146;DHT22;8688;54.444;18.444;2023-09-18T14:15:59;27.40;1.00
17146;DHT22;8688;54.444;18.444;2023-09-18T14:18:29;27.30;1.00
17146;DHT22;8688;54.444;18.444;2023-09-18T14:20:57;27.30;1.00
17146;DHT22;8688;54.444;18.444;2023-09-18T14:23:25;27.30;1.00
17146;DHT22;8688;54.444;18.444;2023-09-18T14:25:53;27.30;1.00
17146;DHT22;8688;54.444;18.444;2023-09-18T14:28:21;27.20;1.00
17146;DHT22;8688;54.444;18.444;2023-09-18T14:30:51;27.10;99.90
17146;DHT22;8688;54.444;18.444;2023-09-18T14:33:19;27.10;1.00
17146;DHT22;8688;54.444;18.444;2023-09-18T14:35:46;27.00;99.90
17146;DHT22;8688;54.444;18.444;2023-09-18T14:38:15;26.90;99.90
17146;DHT22;8688;54.444;18.444;2023-09-18T14:40:43;26.90;1.00
17146;DHT22;8688;54.444;18.444;2023-09-18T14:43:11;26.90;1.00
17146;DHT22;8688;54.444;18.444;2023-09-18T14:45:39;26.80;1.00
17146;DHT22;8688;54.444;18.444;2023-09-18T14:48:09;26.70;1.00
17146;DHT22;8688;54.444;18.444;2023-09-18T14:50:38;26.60;1.00
17146;DHT22;8688;54.444;18.444;2023-09-18T14:53:06;26.50;99.90
17146;DHT22;8688;54.444;18.444;2023-09-18T14:55:34;26.40;1.00
17146;DHT22;8688;54.444;18.444;2023-09-18T14:58:05;26.20;1.00
17146;DHT22;8688;54.444;18.444;2023-09-18T15:00:35;26.20;1.00
17146;DHT22;8688;54.444;18.444;2023-09-18T15:03:04;26.20;1.00
17146;DHT22;8688;54.444;18.444;2023-09-18T15:13:47;26.10;1.00
17146;DHT22;8688;54.444;18.444;2023-09-18T15:19:07;25.80;1.00
17146;DHT22;8688;54.444;18.444;2023-09-18T15:21:39;25.70;91.20
17146;DHT22;8688;54.444;18.444;2023-09-18T15:24:09;25.50;1.00
17146;DHT22;8688;54.444;18.444;2023-09-18T15:26:40;25.40;99.90
17146;DHT22;8688;54.444;18.444;2023-09-18T15:29:13;25.40;1.00
17146;DHT22;8688;54.444;18.444;2023-09-18T15:31:44;25.30;1.00
17146;DHT22;8688;54.444;18.444;2023-09-18T15:34:15;25.10;1.00
17146;DHT22;8688;54.444;18.444;2023-09-18T15:36:45;25.00;1.00
17146;DHT22;8688;54.444;18.444;2023-09-18T15:39:14;24.90;1.00
17146;DHT22;8688;54.444;18.444;2023-09-18T15:41:44;24.90;1.00
17146;DHT22;8688;54.444;18.444;2023-09-18T15:44:16;24.80;1.00
17146;DHT22;8688;54.444;18.444;2023-09-18T15:46:46;24.70;1.00
17146;DHT22;8688;54.444;18.444;2023-09-18T15:49:16;24.70;1.00
17146;DHT22;8688;54.444;18.444;2023-09-18T15:51:46;24.60;1.00
17146;DHT22;8688;54.444;18.444;2023-09-18T15:54:16;24.40;1.00
17146;DHT22;8688;54.444;18.444;2023-09-18T15:56:45;24.40;1.00
17146;DHT22;8688;54.444;18.444;2023-09-18T15:59:18;24.30;1.00
17146;DHT22;8688;54.444;18.444;2023-09-18T16:01:57;24.30;99.90
17146;DHT22;8688;54.444;18.444;2023-09-18T16:04:26;24.20;30.50
17146;DHT22;8688;54.444;18.444;2023-09-18T16:06:56;24.10;53.30
17146;DHT22;8688;54.444;18.444;2023-09-18T16:09:32;24.10;62.50
17146;DHT22;8688;54.444;18.444;2023-09-18T16:12:03;24.00;1.00
17146;DHT22;8688;54.444;18.444;2023-09-18T16:14:39;24.00;77.10
17146;DHT22;8688;54.444;18.444;2023-09-18T16:17:14;23.90;1.00
17146;DHT22;8688;54.444;18.444;2023-09-18T16:19:46;23.90;1.00
17146;DHT22;8688;54.444;18.444;2023-09-18T16:22:17;23.90;1.00
17146;DHT22;8688;54.444;18.444;2023-09-18T16:24:48;23.80;17.20
17146;DHT22;8688;54.444;18.444;2023-09-18T16:27:28;23.70;1.00